DFOO/BOY METAR and TAF weather

Enter ICAO airport designator
Station Type Date Time Source
DFOO METAR 2022/08/12 14:00 UTC NOAA

DFOO 121400Z VRB02KT 9999 FEW016 SCT026 29/22 Q1013


Station Type Date Time Source
DFOO Decoded METAR 2022/08/12 14:00 UTC NOAA

Bobo-Dioulasso, Burkina Faso (DFOO) 11-10N 004-19W 460M
Aug 12, 2022 - 10:00 AM EDT / 2022.08.12 1400 UTC
Wind: Variable at 2 MPH (2 KT):0
Visibility: greater than 7 mile(s):0
Sky conditions: partly cloudy
Temperature: 84 F (29 C)
Dew Point: 71 F (22 C)
Relative Humidity: 65%
Pressure (altimeter): 29.91 in. Hg (1013 hPa)
ob: DFOO 121400Z VRB02KT 9999 FEW016 SCT026 29/22 Q1013
cycle: 14

Station Type Date Time Source
DFOO TAF 2022/08/12 12:16 UTC NOAA

TAF DFOO 121100Z 1212/1312 24008KT 9999 FEW016 PROB30
TEMPO 1218/1224 4000 TSRA SCT016 SCT030CB

Example: see airport list